Dewey, Wisconsin
Current Conditions -  °F | °C
As of 11:35 PM on Saturday 25 Oct 2014 (Local Time) from KSTE Reporting Station
Clear Clear  
Wind Chill: 45°   Ceiling: Unl
Heat Index: 45°   Visibility: 10mi
Dew Point: 25°   Wind: 3mph
Humidity: 47%   Direction: 280°W
Pressure: 29.98"   Gusts: NA
Location:  44.5531°N, 89.5186°W
Report Text: KSTE 260435Z AUTO 28003KT 10SM CLR 07/M04 A2998 RMK AO2 P0001 T00701037
Loading
Personal Weather Stations






























Interactive Weather Map
Tropical Storm Tracking
New forecast layout! Learn more

10-Day Weather Forecast

Advertisements
Track Severe Weather on mobile